Avioradar koristi kolačiće da bi Vam omogućio jednostavnije i ugodnije korištenje stranice. 

AVIORADAR - Hrvatski zrakoplovni portal

METAR & TAF

[Source: ADDS]
METAR
LDZA 041630Z 10004KT 080V140 CAVOK 21/18 Q1007 BECMG 04014KT =
LDZA 041125Z 0412/0512 06008KT 9999 SCT040 TX28/0412Z TN15/0504Z PROB40 TEMPO 0412/0502 TSRA FEW025CB BKN030 PROB30 TEMPO 0414/0418 23020G30KT 2000 TSGR SCT025CB BKN030 BECMG 0416/0418 04014KT TEMPO 0502/0510 4000 RA BKN014 LDSP 041630Z 08003KT 030V140 9999 FEW013 SCT033 25/20 Q1004 TEMPO TSRA FEW030CB =
AMD LDSP 041253Z 0412/0512 12012KT 9999 SCT040 TX30/0412Z TN21/0503Z TEMPO 0412/0414 18014KT PROB40 TEMPO 0412/0422 15015G28KT 3000 TSRA FEW030CB BKN033 BECMG 0422/0500 31008KT PROB30 TEMPO 0422/0512 -TSRA FEW027CB SCT030 LDDU 041630Z 13022KT 9999 FEW050 27/21 Q1006 NOSIG =
LDDU 041125Z 0412/0512 14020KT 9999 SCT020 TX27/0412Z TN22/0503Z PROB30 TEMPO 0412/0418 -TSRA FEW025CB BKN027 BECMG 0415/0417 12010KT PROB40 TEMPO 0418/0500 VRB18G30KT 3000 TSRA SCT020CB BKN023 PROB30 TEMPO 0500/0512 -TSRA FEW020CB SCT023 LDPL 041630Z 30016KT 9999 -RA FEW025CB BKN050 19/16 Q1005 RETSRA BECMG BKN045 TEMPO -TSRA =
LDPL 041125Z 0412/0512 08008KT CAVOK TX26/0413Z TN16/0502Z PROB30 TEMPO 0412/0420 27015G25KT 3000 TSRA FEW030CB BECMG 0417/0419 06015KT PROB40 TEMPO 0420/0512 06020G30KT PROB30 TEMPO 0420/0502 SHRA FEW030TCU LDZD 041630Z 30023KT 270V340 3000 TSRA SCT010 FEW027CB BKN030 20/19 Q1006 BECMG FM1700 9999 NSW BKN030 TEMPO 30025G35KT =
AMD LDZD 041509Z 0415/0512 20012KT 9999 SCT040 TX29/0415Z TN18/0423Z PROB40 TEMPO 0415/0421 30020G30KT 2500 +TSRA SCT027CB BKN030 PROB30 TEMPO 0421/0503 -TSRA FEW030CB BECMG 0422/0500 04009KT TEMPO 0506/0512 06014KT LDRI 041630Z VRB02KT 9999 -RA FEW015 FEW025TCU BKN038 BKN068 19/18 Q1006 RETSRA =
LDRI 041125Z 0412/0512 12004KT CAVOK TX29/0413Z TN17/0504Z PROB30 TEMPO 0412/0502 -TSRA FEW040CB BECMG 0500/0502 06025G50KT BECMG 0505/0507 06010KT TEMPO 0507/0512 04015G30KT PROB30 TEMPO 0507/0512 32012KT LDOS 041630Z 35014KT 9999 VCTS FEW025CB SCT037 23/19 Q1006 RETS =
LDOS 041125Z 0412/0512 11004KT CAVOK TX32/0413Z TN19/0503Z PROB40 TEMPO 0412/0512 34015G25KT TSRA FEW025CB BKN035 PROB30 TEMPO 0414/0505 2000 +TSRA SCT020CB BKN035 TEMPO 0508/0512 09012KT
TAF
LDZA 041125Z 0412/0512 06008KT 9999 SCT040 TX28/0412Z TN15/0504Z PROB40 TEMPO 0412/0502 TSRA FEW025CB BKN030 PROB30 TEMPO 0414/0418 23020G30KT 2000 TSGR SCT025CB BKN030 BECMG 0416/0418 04014KT TEMPO 0502/0510 4000 RA BKN014 =
AMD LDSP 041253Z 0412/0512 12012KT 9999 SCT040 TX30/0412Z TN21/0503Z TEMPO 0412/0414 18014KT PROB40 TEMPO 0412/0422 15015G28KT 3000 TSRA FEW030CB BKN033 BECMG 0422/0500 31008KT PROB30 TEMPO 0422/0512 -TSRA FEW027CB SCT030 =
LDDU 041125Z 0412/0512 14020KT 9999 SCT020 TX27/0412Z TN22/0503Z PROB30 TEMPO 0412/0418 -TSRA FEW025CB BKN027 BECMG 0415/0417 12010KT PROB40 TEMPO 0418/0500 VRB18G30KT 3000 TSRA SCT020CB BKN023 PROB30 TEMPO 0500/0512 -TSRA FEW020CB SCT023 =
LDPL 041125Z 0412/0512 08008KT CAVOK TX26/0413Z TN16/0502Z PROB30 TEMPO 0412/0420 27015G25KT 3000 TSRA FEW030CB BECMG 0417/0419 06015KT PROB40 TEMPO 0420/0512 06020G30KT PROB30 TEMPO 0420/0502 SHRA FEW030TCU =
AMD LDZD 041509Z 0415/0512 20012KT 9999 SCT040 TX29/0415Z TN18/0423Z PROB40 TEMPO 0415/0421 30020G30KT 2500 +TSRA SCT027CB BKN030 PROB30 TEMPO 0421/0503 -TSRA FEW030CB BECMG 0422/0500 04009KT TEMPO 0506/0512 06014KT =
LDRI 041125Z 0412/0512 12004KT CAVOK TX29/0413Z TN17/0504Z PROB30 TEMPO 0412/0502 -TSRA FEW040CB BECMG 0500/0502 06025G50KT BECMG 0505/0507 06010KT TEMPO 0507/0512 04015G30KT PROB30 TEMPO 0507/0512 32012KT =
LDOS 041125Z 0412/0512 11004KT CAVOK TX32/0413Z TN19/0503Z PROB40 TEMPO 0412/0512 34015G25KT TSRA FEW025CB BKN035 PROB30 TEMPO 0414/0505 2000 +TSRA SCT020CB BKN035 TEMPO 0508/0512 09012KT =
SR / SS: 03:43 / 18:19 UTC (Zagreb 2020-08-04)